»·PEaware :: DFGCW KPHX-KPRC

DFGCW :: KPHX-KPRC

FLIGHT INFORMATION

Flight Status: Arrived
Operator: Unknown
More flights by this operator :: More flights under this callsign
Pilot: Klaus A. (15485)
Aircraft: PILATUS PC-12 EAGLE
(PC12)
More flights by this aircraft type
Origin: KPHX Phoenix Sky Harbor Intl
United States
Destination: KPRC Love
United States
More flights between these airports :: More routes between these airports
Route: +PXR V105 DRK
File this flight plan on PilotEdge
Remarks: / G Newbie Custom Weather
Altitude:
(Current/Filed)
12,000ft
Speed:
(Current/Filed)
230kts
Departed: 07-Jun-18 08:25 AM
Arrived: 07-Jun-18 10:07 AM
Distance/Time
Traveled:
76nm/1:42
Distance/Time
To Go:
Arrived

Flight Plot

Page will automatically refresh every two minutes.


Map Options




Map Legend


Flown Route
Filed Route
Departure Airport
Arrival Airport
Navaid (VOR, NDB)
Fix

Horizontal Profiles

Position Reports

Time Latitude Longitude Heading Altitude Ground
Speed
07-Jun-18 07:59 33.443051 -112.025091 226 1140ft 0kts
07-Jun-18 08:00 33.443051 -112.025091 226 1140ft 0kts
07-Jun-18 08:01 33.443051 -112.025091 226 1140ft 0kts
07-Jun-18 08:02 33.443051 -112.025091 226 1140ft 0kts
07-Jun-18 08:03 33.443051 -112.025091 226 1140ft 0kts
07-Jun-18 08:04 33.443051 -112.025091 226 1140ft 0kts
07-Jun-18 08:05 33.443051 -112.025091 226 1140ft 0kts
07-Jun-18 08:06 33.443051 -112.025091 226 1140ft 0kts
07-Jun-18 08:07 33.443051 -112.025091 226 1140ft 0kts
07-Jun-18 08:08 33.443051 -112.025091 226 1140ft 0kts
07-Jun-18 08:09 33.443051 -112.025091 226 1140ft 0kts
07-Jun-18 08:10 33.443051 -112.025091 226 1140ft 0kts
07-Jun-18 08:11 33.443051 -112.025091 226 1140ft 0kts
07-Jun-18 08:12 33.443051 -112.025091 226 1140ft 0kts
07-Jun-18 08:13 33.443051 -112.025091 226 1140ft 0kts
07-Jun-18 08:14 33.443051 -112.025091 226 1140ft 0kts
07-Jun-18 08:15 33.443051 -112.025091 226 1140ft 0kts
07-Jun-18 08:16 33.443051 -112.025091 226 1140ft 0kts
07-Jun-18 08:17 33.443051 -112.025091 226 1140ft 0kts
07-Jun-18 08:18 33.443051 -112.025091 226 1140ft 0kts
07-Jun-18 08:19 33.443051 -112.025091 226 1140ft 0kts
07-Jun-18 08:20 33.443016 -112.025133 222 1140ft 1kts
07-Jun-18 08:21 33.441927 -112.026692 267 1140ft 7kts
07-Jun-18 08:22 33.441782 -112.029587 205 1140ft 0kts
07-Jun-18 08:23 33.441782 -112.029587 205 1140ft 0kts
07-Jun-18 08:24 33.441779 -112.029589 204 1140ft 0kts
07-Jun-18 08:25 33.440543 -112.015600 91 1506ft 113kts
07-Jun-18 08:26 33.447296 -111.969833 60 3338ft 159kts
07-Jun-18 08:27 33.467014 -111.918008 60 5218ft 192kts
07-Jun-18 08:28 33.495355 -111.862286 60 7060ft 204kts
07-Jun-18 08:29 33.528042 -111.805917 58 8679ft 213kts
07-Jun-18 08:30 33.575019 -111.806258 299 10196ft 193kts
07-Jun-18 08:31 33.609147 -111.856278 300 11632ft 197kts
07-Jun-18 08:32 33.646674 -111.909034 300 12390ft 221kts
07-Jun-18 08:33 33.663580 -111.933569 300 12194ft 244kts
07-Jun-18 08:45 33.443051 -112.025091 226 1140ft 0kts
07-Jun-18 08:46 33.443051 -112.025091 226 1140ft 0kts
07-Jun-18 08:47 33.443051 -112.025091 226 1140ft 0kts
07-Jun-18 08:48 33.443051 -112.025091 226 1140ft 0kts
07-Jun-18 08:49 33.443051 -112.025091 226 1140ft 0kts
07-Jun-18 09:14 33.443051 -112.025091 226 1139ft 0kts
07-Jun-18 09:15 33.443051 -112.025091 226 1140ft 0kts
07-Jun-18 09:16 33.443051 -112.025091 226 1139ft 0kts
07-Jun-18 09:17 33.443051 -112.025091 226 1140ft 0kts
07-Jun-18 09:18 33.441916 -112.026242 269 1140ft 15kts
07-Jun-18 09:19 33.441789 -112.029571 211 1140ft 0kts
07-Jun-18 09:20 33.441617 -112.029636 191 1139ft 7kts
07-Jun-18 09:21 33.440509 -112.012003 96 1566ft 120kts
07-Jun-18 09:22 33.451743 -111.970301 60 3661ft 162kts
07-Jun-18 09:23 33.473489 -111.913490 59 5283ft 207kts
07-Jun-18 09:24 33.500820 -111.848852 61 6909ft 225kts
07-Jun-18 09:25 33.535974 -111.786002 42 8315ft 238kts
07-Jun-18 09:26 33.585301 -111.807946 300 9715ft 213kts
07-Jun-18 09:27 33.621316 -111.862973 299 11105ft 210kts
07-Jun-18 09:28 33.658255 -111.918363 299 12041ft 225kts
07-Jun-18 09:29 33.688701 -111.985982 279 12034ft 239kts
07-Jun-18 09:30 33.708692 -112.062852 279 12040ft 244kts
07-Jun-18 09:31 33.728655 -112.141368 288 12021ft 252kts
07-Jun-18 09:32 33.792304 -112.186554 327 12034ft 273kts
07-Jun-18 09:33 33.859891 -112.227864 327 12030ft 273kts
07-Jun-18 09:34 33.927605 -112.269100 327 12030ft 274kts
07-Jun-18 09:35 33.995408 -112.310351 327 12030ft 274kts
07-Jun-18 09:36 34.063546 -112.351898 327 12031ft 274kts
07-Jun-18 09:37 34.129218 -112.391836 327 12024ft 274kts
07-Jun-18 09:38 34.196724 -112.433004 327 12172ft 268kts
07-Jun-18 09:39 34.264012 -112.474352 327 12016ft 277kts
07-Jun-18 09:40 34.336520 -112.500193 358 11990ft 284kts
07-Jun-18 09:41 34.415054 -112.492147 0 11999ft 283kts
07-Jun-18 09:42 34.493734 -112.488120 359 12000ft 283kts
07-Jun-18 09:43 34.572239 -112.484951 359 12000ft 283kts
07-Jun-18 09:44 34.650907 -112.481923 359 11998ft 283kts
07-Jun-18 09:45 34.723085 -112.467487 30 10665ft 259kts
07-Jun-18 09:46 34.784074 -112.425620 30 9358ft 247kts
07-Jun-18 09:47 34.840178 -112.386987 30 8989ft 209kts
07-Jun-18 09:48 34.890288 -112.352596 30 9008ft 213kts
07-Jun-18 09:49 34.942156 -112.316899 30 8997ft 208kts
07-Jun-18 09:50 34.975309 -112.273952 121 9094ft 163kts
07-Jun-18 09:51 34.946385 -112.233643 140 9083ft 161kts
07-Jun-18 09:52 34.909012 -112.217597 190 9006ft 150kts
07-Jun-18 09:53 34.867644 -112.224555 190 9003ft 149kts
07-Jun-18 09:54 34.827845 -112.234803 220 9013ft 148kts
07-Jun-18 09:55 34.799147 -112.265426 218 8629ft 111kts
07-Jun-18 09:56 34.788165 -112.277083 218 8318ft 105kts
07-Jun-18 10:07 34.651431 -112.420136 123 5047ft 0kts
07-Jun-18 10:08 34.651431 -112.420136 123 5047ft 0kts

Navigation Log

Ident Type
Flight plan parsing failed, navigation log unavailable